London Gatwick Airport

METAR EGKK TAF EGKK
11 °C
°C
-
°C
38m
Leeftijd
01:58:13
LT
00:58
UTC
0 ft

1.000

2.000

3.000

4.000

5.000

BKN 1.800
BKN 2.300
MVFR
<?= Yii::t('app', 'Wind direction') ?> <?= Yii::t('app', 'of'); ?>
210°
05:59
Zonsopgang
77%
Luchtvochtigheid
Windschering
Gesloten/sneeuw
Baanzicht
Baanconditie
Verticaal zicht
Min. zicht
CAVOK
Trend
Correctie
Speciaal rapport
1005 hPa
QNH
METAR EGKK 220020Z 21016KT 9999 BKN018 BKN023 11/07 Q1005
Zwaar bewolkt
12 kt
12 kt
00:00
IFR
18 kt
01:00
IFR
18 kt
02:00
LIFR
18 kt
03:00
LIFR
18 kt
04:00
LIFR
18 kt
05:00
LIFR
18 kt
06:00
LIFR
18 kt
10 km+
Zicht
1.800 ft
Plafond
16 kt
Wind
metar-taf.com/EGKK

Metar-Taf.com

Visuele decoder

Wij en derden volgen je internetgedrag op onze website met cookies. Als je doorgaat, gaan we ervan uit dat je akkoord gaat met onze cookiebeleid.